Accueil
METAR-TAF:

METAR-TAF

Aéroports :

Shawnee Regional Airport

Shawnee, Oklahoma, États-Unis

latitude: 35-21-26N, longitude: 096-56-34W, altitude: 327 m

Observation

Le bulletin a été fait il y a 33 minutes, à 04:55 UTC
Vent 6 kt de sud
Température 24°C
Humidité 78%
Pression 1013 hPa
Visibilité: 16.1 km
Ciel clair

METAR: KSNL 200455Z AUTO 18006KT 10SM CLR 24/20 A2992 RMK AO2 T02350200

Heure: 00:28 (05:28 UTC)


TAF: absent

Observations et prévisions météorologiques de plus de 4000 aéroports (messages METAR et TAF).

Les stations disponibles sont représentées par des disques jaunes et rouges sur la carte.

Passer la souris dessus pour voir le nom de la station.

Cliquer dessus pour voir les observations et prévisions météorologiques.

Pour changer de carte: cliquez sur les boutons verts avec une croix noire pour zoomer, sur le bouton vert avec un tiret pour effectuer un zoom arrière, ou sur les flèches vertes pour les cartes adjacentes.


METAR-TAF: